createdAt,value
2023-12-13T00:00:55.909Z,97296.88
2023-12-13T00:03:22.701Z,97289.06
2023-12-13T00:05:49.532Z,97289.41
2023-12-13T00:08:16.408Z,97282.69
2023-12-13T00:10:43.472Z,97290.03
2023-12-13T00:13:10.276Z,97284.63
2023-12-13T00:15:37.018Z,97289.56
2023-12-13T00:18:04.214Z,97283.56
2023-12-13T00:20:31.248Z,97273.88
2023-12-13T00:22:58.039Z,97275.75
2023-12-13T00:25:24.820Z,97278.34
2023-12-13T00:27:52.797Z,97288.03
2023-12-13T00:30:19.746Z,97282.94
2023-12-13T00:32:46.858Z,97280.09
2023-12-13T00:35:13.718Z,97280.72
2023-12-13T00:37:40.563Z,97277.22
2023-12-13T00:40:08.491Z,97280.25
2023-12-13T00:42:35.410Z,97278.81
2023-12-13T00:45:02.322Z,97283.56
2023-12-13T00:47:29.228Z,97273.56
2023-12-13T00:49:56.410Z,97280.69
2023-12-13T00:52:23.306Z,97279.28
2023-12-13T00:54:50.142Z,97275.59
2023-12-13T00:57:17.626Z,97268.28
2023-12-13T00:59:44.471Z,97273.22
2023-12-13T01:02:11.507Z,97267.50
2023-12-13T01:04:39.506Z,97272.59
2023-12-13T01:07:06.425Z,97272.25
2023-12-13T01:09:33.177Z,97265.72
2023-12-13T01:12:00.729Z,97279.56
2023-12-13T01:14:27.649Z,97278.63
2023-12-13T01:16:54.598Z,97274.81
2023-12-13T01:19:21.531Z,97277.50
2023-12-13T01:21:48.414Z,97281.81
2023-12-13T01:24:15.233Z,97276.72
2023-12-13T01:26:42.047Z,97285.63
2023-12-13T01:29:09.038Z,97284.50
2023-12-13T01:31:36.706Z,97282.91
2023-12-13T01:34:04.428Z,97287.69
2023-12-13T01:36:31.228Z,97283.88
2023-12-13T01:38:58.013Z,97285.44
2023-12-13T01:41:24.842Z,97287.03
2023-12-13T01:43:51.671Z,97282.09
2023-12-13T01:46:18.726Z,97294.16
2023-12-13T01:48:46.746Z,97296.38
2023-12-13T01:51:13.877Z,97299.44
2023-12-13T01:53:42.954Z,97301.00
2023-12-13T01:56:12.861Z,97294.63
2023-12-13T01:58:41.047Z,97292.41
2023-12-13T02:01:10.217Z,97296.41
2023-12-13T02:03:37.983Z,97299.38
2023-12-13T02:06:06.144Z,97295.44
2023-12-13T02:08:34.523Z,97288.09
2023-12-13T02:11:01.558Z,97288.28
2023-12-13T02:13:28.586Z,97292.75
2023-12-13T02:15:55.699Z,97297.84
2023-12-13T02:18:23.689Z,97307.53
2023-12-13T02:20:53.329Z,97317.69
2023-12-13T02:23:20.143Z,97317.53
2023-12-13T02:26:06.502Z,97314.22
2023-12-13T02:28:33.362Z,97310.38
2023-12-13T02:31:01.819Z,97301.94
2023-12-13T02:33:30.956Z,97301.81
2023-12-13T02:36:00.615Z,97298.00
2023-12-13T02:38:27.574Z,97296.06
2023-12-13T02:40:54.765Z,97288.56
2023-12-13T02:43:22.298Z,97285.59
2023-12-13T02:45:49.425Z,97283.19
2023-12-13T02:48:16.498Z,97281.59
2023-12-13T02:50:43.458Z,97283.34
2023-12-13T02:53:10.310Z,97280.66
2023-12-13T02:55:37.200Z,97283.22
2023-12-13T02:58:05.763Z,97286.56
2023-12-13T03:00:33.105Z,97281.63
2023-12-13T03:03:00.120Z,97280.03
2023-12-13T03:05:27.018Z,97272.72
2023-12-13T03:07:54.148Z,97262.56
2023-12-13T03:10:21.213Z,97262.09
2023-12-13T03:12:48.137Z,97262.91
2023-12-13T03:15:15.389Z,97265.59
2023-12-13T03:17:42.630Z,97259.06
2023-12-13T03:20:11.401Z,97244.44
2023-12-13T03:22:38.624Z,97246.03
2023-12-13T03:25:07.184Z,97234.44
2023-12-13T03:27:34.537Z,97235.06
2023-12-13T03:30:01.677Z,97232.06
2023-12-13T03:32:28.801Z,97229.66
2023-12-13T03:34:55.673Z,97225.56
2023-12-13T03:37:24.077Z,97225.44
2023-12-13T03:39:50.920Z,97219.38
2023-12-13T03:42:17.801Z,97219.84
2023-12-13T03:44:44.684Z,97215.09
2023-12-13T03:47:11.586Z,97210.47
2023-12-13T03:49:38.484Z,97204.13
2023-12-13T03:52:08.533Z,97201.28
2023-12-13T03:54:35.983Z,97194.63
2023-12-13T03:57:03.059Z,97186.03
2023-12-13T03:59:29.874Z,97189.22
2023-12-13T04:01:56.905Z,97182.22
2023-12-13T04:04:24.152Z,97179.06
2023-12-13T04:06:51.048Z,97184.47
2023-12-13T04:09:17.852Z,97187.16
2023-12-13T04:11:44.744Z,97183.69
2023-12-13T04:14:11.602Z,97179.41
2023-12-13T04:16:40.016Z,97180.34
2023-12-13T04:19:07.859Z,97184.97
2023-12-13T04:21:34.759Z,97185.28
2023-12-13T04:24:03.148Z,97190.53
2023-12-13T04:26:30.187Z,97177.03
2023-12-13T04:28:57.324Z,97182.75
2023-12-13T04:31:24.446Z,97183.69
2023-12-13T04:33:51.299Z,97177.66
2023-12-13T04:36:18.090Z,97175.41
2023-12-13T04:38:45.236Z,97172.88
2023-12-13T04:41:12.077Z,97176.06
2023-12-13T04:43:39.126Z,97163.00
2023-12-13T04:46:06.400Z,97171.13
2023-12-13T04:48:33.269Z,97164.13
2023-12-13T04:51:00.300Z,97164.44
2023-12-13T04:53:27.062Z,97169.25
2023-12-13T04:55:53.894Z,97160.03
2023-12-13T04:58:21.206Z,97164.94
2023-12-13T05:00:49.968Z,97164.00
2023-12-13T05:03:17.002Z,97154.63
2023-12-13T05:05:43.857Z,97161.63
2023-12-13T05:08:13.960Z,97146.22
2023-12-13T05:10:44.422Z,97157.81
2023-12-13T05:13:11.610Z,97158.28
2023-12-13T05:15:38.711Z,97147.34
2023-12-13T05:18:05.979Z,97151.81
2023-12-13T05:20:33.989Z,97143.72
2023-12-13T05:23:00.852Z,97139.91
2023-12-13T05:25:27.721Z,97137.97
2023-12-13T05:27:54.599Z,97139.56
2023-12-13T05:30:24.630Z,97132.56
2023-12-13T05:32:54.619Z,97129.88
2023-12-13T05:35:21.520Z,97124.31
2023-12-13T05:37:51.579Z,97127.34
2023-12-13T05:40:19.619Z,97126.22
2023-12-13T05:42:46.492Z,97134.03
2023-12-13T05:45:13.340Z,97125.78
2023-12-13T05:47:40.206Z,97126.06
2023-12-13T05:50:08.140Z,97126.88
2023-12-13T05:52:35.365Z,97124.31
2023-12-13T05:55:02.222Z,97123.22
2023-12-13T05:57:29.079Z,97121.31
2023-12-13T05:59:55.807Z,97124.81
2023-12-13T06:02:22.550Z,97124.00
2023-12-13T06:04:49.776Z,97120.53
2023-12-13T06:07:16.916Z,97125.59
2023-12-13T06:09:44.178Z,97123.69
2023-12-13T06:12:12.555Z,97123.81
2023-12-13T06:14:39.545Z,97116.06
2023-12-13T06:17:06.329Z,97119.53
2023-12-13T06:19:34.097Z,97115.41
2023-12-13T06:22:01.054Z,97120.66
2023-12-13T06:24:28.098Z,97112.91
2023-12-13T06:26:55.025Z,97119.88
2023-12-13T06:29:21.800Z,97119.38
2023-12-13T06:31:48.905Z,97129.03
2023-12-13T06:34:15.790Z,97111.72
2023-12-13T06:36:42.659Z,97113.66
2023-12-13T06:39:12.342Z,97109.38
2023-12-13T06:41:43.072Z,97105.88
2023-12-13T06:44:10.091Z,97094.75
2023-12-13T06:46:37.236Z,97102.84
2023-12-13T06:49:06.830Z,97095.88
2023-12-13T06:51:33.767Z,97099.69
2023-12-13T06:54:00.786Z,97099.69
2023-12-13T06:56:27.732Z,97105.56
2023-12-13T06:58:55.816Z,97103.50
2023-12-13T07:01:23.948Z,97098.41
2023-12-13T07:03:51.061Z,97102.09
2023-12-13T07:06:19.566Z,97103.84
2023-12-13T07:08:46.441Z,97101.94
2023-12-13T07:11:13.708Z,97098.44
2023-12-13T07:13:40.848Z,97107.03
2023-12-13T07:16:09.052Z,97102.41
2023-12-13T07:18:35.994Z,97099.53
2023-12-13T07:21:02.875Z,97102.69
2023-12-13T07:23:32.917Z,97092.22
2023-12-13T07:25:59.948Z,97099.53
2023-12-13T07:28:26.826Z,97095.72
2023-12-13T07:31:02.369Z,97092.69
2023-12-13T07:33:39.142Z,97080.63
2023-12-13T07:36:06.672Z,97086.38
2023-12-13T07:38:33.569Z,97096.69
2023-12-13T07:41:00.497Z,97092.41
2023-12-13T07:43:28.262Z,97102.09
2023-12-13T07:45:56.094Z,97100.66
2023-12-13T07:48:28.833Z,97108.44
2023-12-13T07:50:59.783Z,97093.81
2023-12-13T07:53:26.747Z,97090.94
2023-12-13T07:55:53.683Z,97094.09
2023-12-13T07:58:20.892Z,97098.69
2023-12-13T08:00:48.187Z,97095.03
2023-12-13T08:03:15.041Z,97098.50
2023-12-13T08:05:42.003Z,97090.88
2023-12-13T08:08:09.630Z,97084.06
2023-12-13T08:10:36.492Z,97090.56
2023-12-13T08:13:04.357Z,97086.28
2023-12-13T08:15:31.252Z,97090.69
2023-12-13T08:17:58.714Z,97093.84
2023-12-13T08:20:30.127Z,97097.19
2023-12-13T08:23:01.773Z,97102.59
2023-12-13T08:25:28.690Z,97113.22
2023-12-13T08:27:55.760Z,97112.75
2023-12-13T08:30:22.840Z,97116.13
2023-12-13T08:32:49.745Z,97109.78
2023-12-13T08:35:16.511Z,97111.84
2023-12-13T08:37:43.363Z,97110.88
2023-12-13T08:40:11.743Z,97117.31
2023-12-13T08:42:42.774Z,97116.69
2023-12-13T08:45:13.047Z,97109.50
2023-12-13T08:47:41.013Z,97109.00
2023-12-13T08:50:08.287Z,97114.88
2023-12-13T08:52:35.141Z,97110.13
2023-12-13T08:55:01.990Z,97112.66
2023-12-13T08:57:28.728Z,97112.94
2023-12-13T08:59:59.648Z,97106.38
2023-12-13T09:02:33.172Z,97099.66
2023-12-13T09:05:01.684Z,97107.09
2023-12-13T09:07:28.529Z,97109.19
2023-12-13T09:09:55.441Z,97103.97
2023-12-13T09:12:22.258Z,97100.81
2023-12-13T09:14:49.063Z,97103.53
2023-12-13T09:17:15.874Z,97099.22
2023-12-13T09:19:42.878Z,97107.81
2023-12-13T09:22:09.733Z,97106.38
2023-12-13T09:24:36.457Z,97104.44
2023-12-13T09:27:04.029Z,97113.47
2023-12-13T09:29:30.817Z,97108.06
2023-12-13T09:31:59.581Z,97101.91
2023-12-13T09:34:26.667Z,97101.09
2023-12-13T09:36:53.566Z,97107.63
2023-12-13T09:39:20.415Z,97110.97
2023-12-13T09:42:08.534Z,97122.59
2023-12-13T09:44:40.293Z,97112.75
2023-12-13T09:47:09.200Z,97122.28
2023-12-13T09:49:38.813Z,97127.84
2023-12-13T09:52:09.589Z,97134.84
2023-12-13T09:54:40.198Z,97133.25
2023-12-13T09:57:07.267Z,97132.13
2023-12-13T09:59:34.552Z,97131.63
2023-12-13T10:02:01.450Z,97127.59
2023-12-13T10:04:29.610Z,97134.25
2023-12-13T10:06:57.436Z,97134.97
2023-12-13T10:09:30.759Z,97125.03
2023-12-13T10:11:59.751Z,97117.69
2023-12-13T10:14:26.751Z,97132.03
2023-12-13T10:17:03.482Z,97126.75
2023-12-13T10:19:36.649Z,97119.75
2023-12-13T10:22:08.296Z,97121.31
2023-12-13T10:24:35.575Z,97108.25
2023-12-13T10:27:02.576Z,97122.72
2023-12-13T10:29:30.841Z,97116.63
2023-12-13T10:31:59.340Z,97116.78
2023-12-13T10:34:26.679Z,97108.47
2023-12-13T10:36:56.649Z,97114.47
2023-12-13T10:39:25.917Z,97104.34
2023-12-13T10:41:58.396Z,97108.47
2023-12-13T10:44:32.634Z,97103.16
2023-12-13T10:47:03.080Z,97103.31
2023-12-13T10:49:31.180Z,97100.63
2023-12-13T10:52:00.400Z,97107.19
2023-12-13T10:54:28.977Z,97107.44
2023-12-13T10:56:57.958Z,97105.84
2023-12-13T10:59:27.052Z,97093.78
2023-12-13T11:01:56.074Z,97092.53
2023-12-13T11:04:24.468Z,97104.19
2023-12-13T11:06:51.268Z,97100.22
2023-12-13T11:09:20.157Z,97089.59
2023-12-13T11:11:47.593Z,97095.91
2023-12-13T11:14:18.615Z,97092.75
2023-12-13T11:16:51.297Z,97091.84
2023-12-13T11:19:23.721Z,97097.19
2023-12-13T11:21:51.682Z,97087.34
2023-12-13T11:24:24.457Z,97096.22
2023-12-13T11:26:55.900Z,97086.28
2023-12-13T11:29:27.470Z,97090.00
2023-12-13T11:32:04.740Z,97083.53
2023-12-13T11:34:43.656Z,97085.13
2023-12-13T11:37:13.398Z,97088.06
2023-12-13T11:39:43.354Z,97073.53
2023-12-13T11:42:13.508Z,97076.13
2023-12-13T11:44:41.224Z,97077.16
2023-12-13T11:47:12.006Z,97079.88
2023-12-13T11:49:41.343Z,97070.69
2023-12-13T11:52:09.917Z,97059.03
2023-12-13T11:54:43.440Z,97057.91
2023-12-13T11:57:19.580Z,97067.50
2023-12-13T11:59:49.053Z,97061.53
2023-12-13T12:02:21.691Z,97060.09
2023-12-13T12:04:51.775Z,97059.44
2023-12-13T12:07:21.352Z,97062.03
2023-12-13T12:09:54.176Z,97056.06
2023-12-13T12:12:24.707Z,97051.66
2023-12-13T12:14:51.575Z,97051.19
2023-12-13T12:17:22.465Z,97052.34
2023-12-13T12:19:50.001Z,97044.56
2023-12-13T12:22:22.895Z,97046.56
2023-12-13T12:24:53.571Z,97050.97
2023-12-13T12:27:25.897Z,97064.22
2023-12-13T12:29:53.314Z,97062.63
2023-12-13T12:32:20.617Z,97070.50
2023-12-13T12:34:49.339Z,97065.06
2023-12-13T12:37:17.253Z,97056.59
2023-12-13T12:39:44.493Z,97060.28
2023-12-13T12:42:11.804Z,97066.13
2023-12-13T12:44:38.677Z,97050.00
2023-12-13T12:47:05.940Z,97050.66
2023-12-13T12:49:32.994Z,97043.19
2023-12-13T12:52:00.117Z,97052.63
2023-12-13T12:54:27.019Z,97051.25
2023-12-13T12:56:54.057Z,97053.50
2023-12-13T12:59:23.009Z,97051.72
2023-12-13T13:01:50.252Z,97050.28
2023-12-13T13:04:17.210Z,97057.13
2023-12-13T13:06:47.531Z,97057.03
2023-12-13T13:09:15.754Z,97058.47
2023-12-13T13:11:44.450Z,97046.72
2023-12-13T13:14:11.350Z,97041.66
2023-12-13T13:16:38.650Z,97042.69
2023-12-13T13:19:09.225Z,97048.78
2023-12-13T13:21:36.161Z,97048.88
2023-12-13T13:24:05.208Z,97058.97
2023-12-13T13:26:35.994Z,97056.13
2023-12-13T13:29:03.309Z,97057.03
2023-12-13T13:31:30.453Z,97063.25
2023-12-13T13:33:57.872Z,97057.97
2023-12-13T13:36:24.776Z,97060.66
2023-12-13T13:38:51.586Z,97056.38
2023-12-13T13:41:18.534Z,97050.84
2023-12-13T13:43:45.643Z,97052.44
2023-12-13T13:46:12.561Z,97056.13
2023-12-13T13:48:39.369Z,97048.66
2023-12-13T13:51:06.681Z,97057.91
2023-12-13T13:53:34.350Z,97059.03
2023-12-13T13:56:03.198Z,97070.66
2023-12-13T13:58:30.965Z,97062.84
2023-12-13T14:00:58.901Z,97066.81
2023-12-13T14:03:26.182Z,97060.75
2023-12-13T14:05:55.647Z,97061.88
2023-12-13T14:08:22.830Z,97048.34
2023-12-13T14:10:53.565Z,97061.88
2023-12-13T14:13:22.681Z,97052.03
2023-12-13T14:15:50.464Z,97055.53
2023-12-13T14:18:21.324Z,97066.47
2023-12-13T14:20:50.427Z,97071.09
2023-12-13T14:23:18.535Z,97063.50
2023-12-13T14:25:45.539Z,97072.28
2023-12-13T14:28:12.448Z,97074.06
2023-12-13T14:30:39.585Z,97080.13
2023-12-13T14:33:06.735Z,97079.66
2023-12-13T14:35:33.692Z,97085.53
2023-12-13T14:38:01.305Z,97082.38
2023-12-13T14:40:28.784Z,97087.75
2023-12-13T14:42:55.733Z,97092.50
2023-12-13T14:45:22.860Z,97097.25
2023-12-13T14:47:49.790Z,97094.75
2023-12-13T14:50:16.781Z,97104.44
2023-12-13T14:52:44.119Z,97095.88
2023-12-13T14:55:12.019Z,97098.91
2023-12-13T14:57:38.906Z,97095.88
2023-12-13T15:00:13.068Z,97100.97
2023-12-13T15:02:43.464Z,97101.75
2023-12-13T15:05:13.600Z,97106.84
2023-12-13T15:07:42.402Z,97096.69
2023-12-13T15:10:13.531Z,97104.31
2023-12-13T15:12:40.866Z,97105.09
2023-12-13T15:15:09.089Z,97110.03
2023-12-13T15:17:36.457Z,97107.66
2023-12-13T15:20:09.825Z,97116.09
2023-12-13T15:22:37.846Z,97121.50
2023-12-13T15:25:11.394Z,97120.59
2023-12-13T15:27:41.388Z,97126.94
2023-12-13T15:30:11.373Z,97136.50
2023-12-13T15:32:41.757Z,97130.94
2023-12-13T15:35:12.622Z,97130.63
2023-12-13T15:37:40.504Z,97124.88
2023-12-13T15:40:10.649Z,97124.88
2023-12-13T15:42:37.733Z,97124.75
2023-12-13T15:45:06.677Z,97126.81
2023-12-13T15:47:34.191Z,97122.34
2023-12-13T15:50:06.792Z,97122.66
2023-12-13T15:52:35.073Z,97132.84
2023-12-13T15:55:01.968Z,97136.06
2023-12-13T15:57:28.919Z,97131.97
2023-12-13T15:59:55.814Z,97139.75
2023-12-13T16:02:22.680Z,97142.75
2023-12-13T16:04:49.606Z,97142.94
2023-12-13T16:07:16.729Z,97143.59
2023-12-13T16:09:43.672Z,97144.72
2023-12-13T16:12:11.023Z,97146.94
2023-12-13T16:14:37.846Z,97153.16
2023-12-13T16:17:04.980Z,97153.47
2023-12-13T16:19:32.373Z,97148.41
2023-12-13T16:21:59.359Z,97150.28
2023-12-13T16:24:26.173Z,97152.69
2023-12-13T16:26:54.118Z,97158.25
2023-12-13T16:29:29.826Z,97157.16
2023-12-13T16:31:57.850Z,97154.16
2023-12-13T16:34:24.941Z,97154.63
2023-12-13T16:36:51.909Z,97165.09
2023-12-13T16:39:20.987Z,97161.91
2023-12-13T16:41:49.968Z,97165.44
2023-12-13T16:44:17.577Z,97162.56
2023-12-13T16:46:44.571Z,97170.34
2023-12-13T16:49:11.720Z,97165.72
2023-12-13T16:51:39.731Z,97171.31
2023-12-13T16:54:06.649Z,97177.69
2023-12-13T16:56:33.480Z,97178.00
2023-12-13T16:59:00.553Z,97178.47
2023-12-13T17:01:27.435Z,97193.09
2023-12-13T17:03:59.011Z,97189.75
2023-12-13T17:06:27.491Z,97196.59
2023-12-13T17:08:58.157Z,97207.84
2023-12-13T17:11:25.238Z,97207.84
2023-12-13T17:13:52.466Z,97207.38
2023-12-13T17:16:19.846Z,97206.59
2023-12-13T17:18:46.994Z,97211.97
2023-12-13T17:21:17.137Z,97205.94
2023-12-13T17:23:45.112Z,97207.22
2023-12-13T17:26:12.039Z,97211.22
2023-12-13T17:28:38.948Z,97218.84
2023-12-13T17:31:06.587Z,97222.34
2023-12-13T17:33:34.404Z,97223.75
2023-12-13T17:36:01.541Z,97231.06
2023-12-13T17:38:30.405Z,97232.16
2023-12-13T17:40:57.582Z,97240.09
2023-12-13T17:43:24.529Z,97237.56
2023-12-13T17:45:51.551Z,97239.78
2023-12-13T17:48:18.493Z,97243.75
2023-12-13T17:50:45.595Z,97248.34
2023-12-13T17:53:12.702Z,97248.50
2023-12-13T17:55:41.638Z,97253.91
2023-12-13T17:58:09.984Z,97260.41
2023-12-13T18:00:36.926Z,97263.28
2023-12-13T18:03:03.959Z,97267.41
2023-12-13T18:05:30.819Z,97269.66
2023-12-13T18:07:57.640Z,97270.44
2023-12-13T18:10:25.018Z,97273.59
2023-12-13T18:12:52.116Z,97279.47
2023-12-13T18:15:18.999Z,97289.97
2023-12-13T18:17:46.116Z,97286.28
2023-12-13T18:20:21.493Z,97299.66
2023-12-13T18:22:48.317Z,97300.59
2023-12-13T18:25:15.230Z,97295.53
2023-12-13T18:27:42.320Z,97292.00
2023-12-13T18:30:09.680Z,97300.44
2023-12-13T18:32:36.844Z,97301.22
2023-12-13T18:35:04.699Z,97307.44
2023-12-13T18:37:31.763Z,97315.34
2023-12-13T18:40:01.335Z,97316.47
2023-12-13T18:42:28.111Z,97318.06
2023-12-13T18:44:55.924Z,97325.84
2023-12-13T18:47:23.194Z,97322.34
2023-12-13T18:49:56.168Z,97327.09
2023-12-13T18:52:23.077Z,97333.16
2023-12-13T18:54:50.070Z,97329.66
2023-12-13T18:57:17.031Z,97336.47
2023-12-13T18:59:44.074Z,97334.25
2023-12-13T19:02:11.110Z,97335.06
2023-12-13T19:04:38.193Z,97346.63
2023-12-13T19:07:05.416Z,97346.97
2023-12-13T19:09:34.202Z,97351.41
2023-12-13T19:12:02.392Z,97352.34
2023-12-13T19:14:29.300Z,97361.75
2023-12-13T19:16:56.173Z,97359.69
2023-12-13T19:19:23.706Z,97360.59
2023-12-13T19:21:51.569Z,97370.78
2023-12-13T19:24:18.648Z,97373.97
2023-12-13T19:26:45.592Z,97369.19
2023-12-13T19:29:16.222Z,97368.53
2023-12-13T19:31:45.380Z,97375.69
2023-12-13T19:34:20.046Z,97379.47
2023-12-13T19:36:54.279Z,97385.84
2023-12-13T19:39:21.085Z,97383.28
2023-12-13T19:41:47.889Z,97385.66
2023-12-13T19:44:14.855Z,97402.19
2023-12-13T19:46:41.760Z,97401.56
2023-12-13T19:49:11.884Z,97397.59
2023-12-13T19:51:38.753Z,97406.81
2023-12-13T19:54:06.333Z,97401.06
2023-12-13T19:56:33.059Z,97402.03
2023-12-13T19:58:59.959Z,97404.09
2023-12-13T20:01:26.822Z,97415.84
2023-12-13T20:03:53.658Z,97419.97
2023-12-13T20:06:20.860Z,97423.00
2023-12-13T20:08:49.049Z,97427.09
2023-12-13T20:11:16.055Z,97422.81
2023-12-13T20:13:50.193Z,97424.69
2023-12-13T20:16:23.350Z,97431.03
2023-12-13T20:18:51.618Z,97428.16
2023-12-13T20:21:18.754Z,97430.69
2023-12-13T20:23:45.674Z,97428.28
2023-12-13T20:26:14.189Z,97429.88
2023-12-13T20:28:41.232Z,97437.28
2023-12-13T20:31:08.653Z,97437.44
2023-12-13T20:33:35.913Z,97442.88
2023-12-13T20:36:08.259Z,97439.28
2023-12-13T20:38:35.464Z,97449.88
2023-12-13T20:41:02.775Z,97447.03
2023-12-13T20:43:30.784Z,97450.34
2023-12-13T20:45:57.632Z,97450.94
2023-12-13T20:48:25.434Z,97458.72
2023-12-13T20:50:52.848Z,97453.81
2023-12-13T20:53:20.098Z,97463.81
2023-12-13T20:55:48.486Z,97470.81
2023-12-13T20:58:15.468Z,97466.81
2023-12-13T21:00:42.419Z,97472.25
2023-12-13T21:03:09.421Z,97482.72
2023-12-13T21:05:36.404Z,97477.19
2023-12-13T21:08:03.377Z,97480.34
2023-12-13T21:10:30.410Z,97482.25
2023-12-13T21:12:57.288Z,97483.19
2023-12-13T21:15:24.391Z,97482.56
2023-12-13T21:17:51.420Z,97487.16
2023-12-13T21:20:21.830Z,97495.72
2023-12-13T21:22:48.799Z,97497.31
2023-12-13T21:25:16.482Z,97504.78
2023-12-13T21:27:43.303Z,97508.31
2023-12-13T21:30:10.599Z,97507.50
2023-12-13T21:32:38.070Z,97508.78
2023-12-13T21:35:05.857Z,97506.88
2023-12-13T21:37:32.847Z,97520.06
2023-12-13T21:39:59.832Z,97518.16
2023-12-13T21:42:26.810Z,97519.94
2023-12-13T21:44:53.694Z,97522.13
2023-12-13T21:47:20.952Z,97525.00
2023-12-13T21:49:48.157Z,97530.41
2023-12-13T21:52:19.191Z,97530.09
2023-12-13T21:54:46.813Z,97533.56
2023-12-13T21:57:13.728Z,97528.19
2023-12-13T21:59:40.600Z,97534.38
2023-12-13T22:02:08.449Z,97545.47
2023-12-13T22:04:35.533Z,97540.41
2023-12-13T22:07:02.461Z,97549.75
2023-12-13T22:09:29.374Z,97545.47
2023-12-13T22:11:56.254Z,97556.47
2023-12-13T22:14:25.281Z,97558.34
2023-12-13T22:16:53.856Z,97561.38
2023-12-13T22:19:39.207Z,97560.25
2023-12-13T22:22:06.409Z,97558.19
2023-12-13T22:24:33.404Z,97571.06
2023-12-13T22:27:02.545Z,97574.88
2023-12-13T22:29:29.433Z,97573.75
2023-12-13T22:31:56.379Z,97574.38
2023-12-13T22:34:23.632Z,97588.84
2023-12-13T22:36:50.544Z,97587.53
2023-12-13T22:39:18.144Z,97590.44
2023-12-13T22:41:45.295Z,97601.03
2023-12-13T22:44:12.233Z,97600.88
2023-12-13T22:46:39.310Z,97605.94
2023-12-13T22:49:06.219Z,97609.75
2023-12-13T22:51:33.031Z,97616.72
2023-12-13T22:54:00.042Z,97612.94
2023-12-13T22:56:26.842Z,97618.16
2023-12-13T22:58:53.704Z,97629.75
2023-12-13T23:01:20.768Z,97631.94
2023-12-13T23:03:54.550Z,97629.75
2023-12-13T23:06:23.990Z,97637.84
2023-12-13T23:08:50.819Z,97625.44
2023-12-13T23:11:17.604Z,97645.44
2023-12-13T23:13:44.391Z,97638.66
2023-12-13T23:16:13.434Z,97636.25
2023-12-13T23:18:40.519Z,97644.03
2023-12-13T23:21:09.049Z,97645.94
2023-12-13T23:23:35.977Z,97654.03
2023-12-13T23:26:02.908Z,97652.44
2023-12-13T23:28:29.858Z,97654.50
2023-12-13T23:30:56.825Z,97652.63
2023-12-13T23:33:23.701Z,97658.31
2023-12-13T23:35:50.525Z,97658.31
2023-12-13T23:38:17.349Z,97662.13
2023-12-13T23:40:44.367Z,97663.72
2023-12-13T23:43:11.415Z,97669.59
2023-12-13T23:45:38.272Z,97671.50
2023-12-13T23:48:05.813Z,97676.09
2023-12-13T23:50:33.468Z,97678.63
2023-12-13T23:53:00.550Z,97681.19
2023-12-13T23:55:27.614Z,97691.66
2023-12-13T23:57:54.556Z,97690.88
